Time;durP1;ratioP1;P1;durP2;ratioP2;P2;SDS_P1;SDS_P2;PMS_P1;PMS_P2;Temp;Humidity;BMP_temperature;BMP_pressure;BME280_temperature;BME280_humidity;BME280_pressure;Samples;Min_cycle;Max_cycle;Signal;HPM_P1;HPM_P2
2022/08/27 00:00:14;;;;;;;5.40;1.52;;;16.90;99.10;;;;;;5049624;28;20094;-70
2022/08/27 00:02:40;;;;;;;4.22;1.52;;;16.80;99.30;;;;;;5049873;28;20025;-70
2022/08/27 00:05:06;;;;;;;5.72;1.95;;;16.70;99.20;;;;;;5049783;28;20080;-70
2022/08/27 00:07:31;;;;;;;2.92;2.10;;;16.90;99.10;;;;;;5048964;28;20064;-70
2022/08/27 00:09:57;;;;;;;2.90;1.85;;;16.80;99.20;;;;;;5048303;28;20025;-70
2022/08/27 00:12:23;;;;;;;6.05;1.98;;;16.70;99.30;;;;;;5047989;28;20025;-70
2022/08/27 00:14:48;;;;;;;5.13;2.08;;;16.80;99.30;;;;;;5049526;28;20017;-70
2022/08/27 00:17:14;;;;;;;5.57;2.45;;;16.70;99.30;;;;;;5049358;28;20021;-70
2022/08/27 00:19:40;;;;;;;3.05;1.85;;;16.70;99.50;;;;;;5049507;28;20025;-70
2022/08/27 00:22:07;;;;;;;5.65;2.38;;;16.60;99.50;;;;;;5049168;28;20037;-70
2022/08/27 00:24:34;;;;;;;8.52;1.92;;;16.60;99.60;;;;;;5049365;28;20033;-70
2022/08/27 00:27:00;;;;;;;2.95;1.35;;;16.60;99.70;;;;;;5049827;28;20421;-70
2022/08/27 00:29:26;;;;;;;6.75;1.92;;;16.60;99.60;;;;;;5053423;28;20029;-70
2022/08/27 00:31:52;;;;;;;3.90;1.70;;;16.60;99.60;;;;;;5051496;28;20199;-70
2022/08/27 00:34:18;;;;;;;3.65;1.52;;;16.60;99.80;;;;;;5053429;28;20078;-70
2022/08/27 00:36:44;;;;;;;3.83;1.92;;;16.50;99.80;;;;;;5052635;28;20028;-70
2022/08/27 00:39:11;;;;;;;5.82;2.15;;;16.50;99.70;;;;;;5053344;28;20024;-70
2022/08/27 00:41:38;;;;;;;5.88;2.22;;;16.40;99.90;;;;;;5053502;28;20496;-70
2022/08/27 00:44:05;;;;;;;8.25;2.28;;;17.20;99.90;;;;;;5052989;28;20465;-70
2022/08/27 00:46:53;;;;;;;6.72;1.73;;;16.20;99.90;;;;;;5053159;28;20021;-70
2022/08/27 00:49:39;;;;;;;6.97;2.22;;;16.40;99.90;;;;;;5052971;28;20127;-70
2022/08/27 00:52:28;;;;;;;7.53;2.00;;;16.30;99.90;;;;;;5051771;28;20035;-70
2022/08/27 00:55:01;;;;;;;7.18;2.33;;;16.40;99.90;;;;;;5053027;28;20025;-70
2022/08/27 00:57:28;;;;;;;6.83;2.23;;;16.30;99.90;;;;;;5052884;28;20017;-70
2022/08/27 00:59:54;;;;;;;4.75;1.95;;;16.20;99.90;;;;;;5053069;28;20252;-70
2022/08/27 01:02:19;;;;;;;5.45;2.00;;;16.20;99.90;;;;;;5052570;28;20059;-70
2022/08/27 01:05:14;;;;;;;3.28;1.77;;;16.30;99.90;;;;;;5052627;28;20039;-70
2022/08/27 01:07:44;;;;;;;6.55;2.08;;;16.30;99.90;;;;;;5052435;28;20033;-70
2022/08/27 01:10:16;;;;;;;4.25;1.83;;;16.30;99.90;;;;;;5052528;28;20045;-70
2022/08/27 01:12:42;;;;;;;4.30;1.98;;;16.30;99.90;;;;;;5052843;28;20021;-70
2022/08/27 01:15:12;;;;;;;5.00;1.42;;;16.20;99.90;;;;;;5052819;28;20056;-70
2022/08/27 01:17:39;;;;;;;4.95;1.90;;;16.30;99.90;;;;;;5053205;28;20036;-70
2022/08/27 01:20:10;;;;;;;7.00;2.40;;;16.20;99.90;;;;;;5051918;28;20378;-70
2022/08/27 01:22:49;;;;;;;4.82;2.38;;;16.40;99.90;;;;;;5052878;28;20419;-71
2022/08/27 01:25:16;;;;;;;7.35;2.08;;;16.30;99.90;;;;;;5052238;28;20036;-71
2022/08/27 01:27:43;;;;;;;4.93;1.80;;;16.30;99.90;;;;;;5052758;28;20049;-71
2022/08/27 01:30:11;;;;;;;5.28;2.35;;;16.30;99.90;;;;;;5052250;28;20120;-71
2022/08/27 01:32:37;;;;;;;5.85;1.92;;;16.40;99.90;;;;;;5053629;28;20033;-71
2022/08/27 01:35:06;;;;;;;6.55;1.80;;;16.40;99.90;;;;;;5051442;28;20445;-71
2022/08/27 01:37:33;;;;;;;3.50;1.75;;;16.40;99.90;;;;;;5051986;28;20040;-71
2022/08/27 01:39:58;;;;;;;5.97;2.63;;;16.30;99.90;;;;;;5051189;28;20024;-71
2022/08/27 01:42:27;;;;;;;5.95;1.83;;;16.40;99.90;;;;;;5051801;28;20028;-71
2022/08/27 01:44:54;;;;;;;5.22;1.58;;;16.50;99.90;;;;;;5051699;28;20112;-71
2022/08/27 01:47:22;;;;;;;7.85;2.55;;;16.40;99.90;;;;;;5052663;28;20025;-71
2022/08/27 01:49:48;;;;;;;4.88;2.00;;;16.50;99.90;;;;;;5050355;28;20033;-71
2022/08/27 01:52:16;;;;;;;4.30;1.60;;;16.30;99.90;;;;;;5051064;28;20017;-72
2022/08/27 01:54:42;;;;;;;5.03;2.03;;;16.40;99.90;;;;;;5052019;28;20497;-71
2022/08/27 01:57:08;;;;;;;3.20;2.00;;;16.40;99.90;;;;;;5051409;28;20036;-71
2022/08/27 01:59:34;;;;;;;6.57;2.22;;;16.50;99.90;;;;;;5051448;28;20030;-71
2022/08/27 02:02:01;;;;;;;7.28;3.15;;;16.40;99.90;;;;;;5051172;28;20485;-70
2022/08/27 02:04:28;;;;;;;8.18;2.40;;;18.30;99.90;;;;;;5051562;28;20049;-71
2022/08/27 02:06:53;;;;;;;4.65;1.95;;;16.50;99.90;;;;;;5052010;28;20099;-70
2022/08/27 02:09:19;;;;;;;3.22;1.67;;;16.60;99.90;;;;;;5051134;28;20017;-70
2022/08/27 02:11:45;;;;;;;4.72;2.08;;;16.50;99.90;;;;;;5051958;28;20057;-70
2022/08/27 02:14:10;;;;;;;4.40;2.17;;;16.60;99.90;;;;;;5049652;28;20055;-70
2022/08/27 02:16:36;;;;;;;6.20;2.22;;;16.60;99.90;;;;;;5051100;28;20079;-70
2022/08/27 02:19:03;;;;;;;4.95;2.25;;;16.50;99.90;;;;;;5051672;28;20021;-70
2022/08/27 02:21:28;;;;;;;3.33;1.80;;;16.90;99.90;;;;;;5051177;28;20029;-70
2022/08/27 02:23:54;;;;;;;5.93;1.83;;;16.50;99.90;;;;;;5051581;28;20436;-70
2022/08/27 02:26:20;;;;;;;6.50;2.67;;;16.50;99.90;;;;;;5050796;28;20063;-70
2022/08/27 02:28:46;;;;;;;4.28;2.03;;;16.50;99.90;;;;;;5051309;28;20021;-70
2022/08/27 02:31:11;;;;;;;6.32;2.47;;;16.50;99.90;;;;;;5050566;28;20017;-70
2022/08/27 02:33:37;;;;;;;7.78;2.35;;;16.60;99.90;;;;;;5051246;28;20025;-70
2022/08/27 02:36:03;;;;;;;8.90;2.20;;;16.50;99.90;;;;;;5051477;28;20025;-70
2022/08/27 02:38:28;;;;;;;6.82;2.42;;;16.50;99.90;;;;;;5050704;28;20025;-70
2022/08/27 02:40:54;;;;;;;3.88;1.73;;;16.50;99.90;;;;;;5051369;28;20025;-70
2022/08/27 02:43:20;;;;;;;5.72;2.38;;;16.00;99.90;;;;;;5050501;28;20029;-70
2022/08/27 02:45:46;;;;;;;7.43;3.05;;;16.40;99.90;;;;;;5049025;28;20033;-70
2022/08/27 02:48:11;;;;;;;4.78;2.08;;;16.70;99.90;;;;;;5050601;28;20086;-70
2022/08/27 02:50:37;;;;;;;4.10;2.00;;;16.50;99.90;;;;;;5049970;28;20028;-70
2022/08/27 02:53:04;;;;;;;6.88;2.13;;;16.40;99.90;;;;;;5051008;28;20470;-70
2022/08/27 02:55:30;;;;;;;5.18;1.80;;;16.40;99.90;;;;;;5050061;28;20029;-70
2022/08/27 02:57:56;;;;;;;4.72;1.80;;;16.50;99.90;;;;;;5050866;28;20025;-70
2022/08/27 03:00:24;;;;;;;4.95;2.25;;;16.50;99.90;;;;;;5049368;28;20109;-70
2022/08/27 03:02:50;;;;;;;3.35;1.95;;;16.50;99.90;;;;;;5050630;28;20385;-70
2022/08/27 03:05:17;;;;;;;5.18;2.05;;;16.50;99.90;;;;;;5050258;28;20045;-70
2022/08/27 03:07:43;;;;;;;5.65;2.45;;;16.20;99.90;;;;;;5050345;28;20109;-70
2022/08/27 03:10:12;;;;;;;3.72;1.65;;;16.50;99.90;;;;;;5050722;28;20064;-70
2022/08/27 03:12:38;;;;;;;5.03;1.83;;;16.40;99.90;;;;;;5050430;28;20544;-70
2022/08/27 03:15:07;;;;;;;3.72;1.98;;;16.40;99.90;;;;;;5050337;28;20496;-70
2022/08/27 03:20:18;;;;;;;4.50;2.47;;;17.10;99.50;;;;;;5050220;28;20067;-70
2022/08/27 03:22:44;;;;;;;3.83;1.80;;;16.50;99.90;;;;;;5050303;28;20048;-70
2022/08/27 03:25:10;;;;;;;6.57;2.38;;;16.50;99.90;;;;;;5050287;28;20029;-70
2022/08/27 03:27:36;;;;;;;11.70;3.17;;;16.50;99.90;;;;;;5050088;28;20025;-70
2022/08/27 03:30:05;;;;;;;5.18;2.28;;;16.60;99.90;;;;;;5050046;28;20481;-70
2022/08/27 03:32:31;;;;;;;4.88;2.55;;;16.60;99.90;;;;;;5049814;28;20123;-70
2022/08/27 03:34:57;;;;;;;3.25;1.65;;;16.50;99.90;;;;;;5050328;28;20064;-70
2022/08/27 03:37:24;;;;;;;5.65;2.03;;;16.60;99.90;;;;;;5049559;28;20021;-70
2022/08/27 03:39:49;;;;;;;8.30;2.03;;;16.60;99.90;;;;;;5050179;28;20385;-70
2022/08/27 03:42:15;;;;;;;3.97;1.73;;;17.50;99.90;;;;;;5049540;28;20024;-71
2022/08/27 03:44:40;;;;;;;4.50;2.40;;;17.80;99.90;;;;;;5049511;28;20462;-70
2022/08/27 03:47:06;;;;;;;3.67;1.98;;;16.90;99.90;;;;;;5050016;28;20474;-70
2022/08/27 03:49:31;;;;;;;5.13;2.00;;;16.50;99.70;;;;;;5049778;28;20504;-70
2022/08/27 03:51:57;;;;;;;5.07;2.17;;;16.50;99.80;;;;;;5050114;28;20374;-70
2022/08/27 03:54:23;;;;;;;6.07;2.33;;;16.30;99.90;;;;;;5050074;28;20017;-70
2022/08/27 03:56:50;;;;;;;3.63;2.63;;;16.30;99.90;;;;;;5050008;28;20461;-70
2022/08/27 03:59:16;;;;;;;9.68;3.05;;;16.20;99.90;;;;;;5049076;28;20484;-70
2022/08/27 04:01:42;;;;;;;4.82;2.45;;;16.20;99.90;;;;;;5049262;28;20123;-70
2022/08/27 04:04:08;;;;;;;6.00;2.05;;;16.20;99.90;;;;;;5049693;28;20160;-70
2022/08/27 04:06:34;;;;;;;6.28;2.70;;;16.10;99.90;;;;;;5047795;28;20127;-71
2022/08/27 04:09:00;;;;;;;7.10;1.80;;;16.10;99.90;;;;;;5049445;28;20021;-71
2022/08/27 04:11:28;;;;;;;3.60;1.85;;;16.20;99.90;;;;;;5049216;28;20033;-71
2022/08/27 04:13:54;;;;;;;5.60;2.30;;;16.00;99.90;;;;;;5049227;28;20060;-71
2022/08/27 04:16:20;;;;;;;5.78;2.72;;;16.10;99.90;;;;;;5049291;28;20519;-71
2022/08/27 04:18:45;;;;;;;4.85;1.77;;;16.20;99.90;;;;;;5049637;28;20025;-71
2022/08/27 04:21:14;;;;;;;3.35;2.15;;;16.10;99.90;;;;;;5049261;28;20131;-71
2022/08/27 04:23:41;;;;;;;6.72;2.90;;;16.00;99.90;;;;;;5049519;28;20035;-71
2022/08/27 04:26:09;;;;;;;5.78;1.88;;;16.10;99.90;;;;;;5048320;28;20040;-71
2022/08/27 04:28:35;;;;;;;6.63;2.22;;;16.10;99.90;;;;;;5048926;28;20390;-71
2022/08/27 04:31:02;;;;;;;4.63;2.33;;;16.10;99.90;;;;;;5049595;28;20039;-71
2022/08/27 04:33:30;;;;;;;4.00;2.13;;;16.10;99.90;;;;;;5048805;28;20040;-71
2022/08/27 04:35:58;;;;;;;4.18;3.13;;;16.00;99.90;;;;;;5049140;28;20083;-71
2022/08/27 04:38:23;;;;;;;2.42;1.90;;;16.10;99.90;;;;;;5049097;28;20078;-71
2022/08/27 04:43:33;;;;;;;6.53;2.78;;;15.90;99.80;;;;;;5048800;28;20112;-71
2022/08/27 04:45:59;;;;;;;5.35;2.30;;;15.80;99.90;;;;;;5049336;28;20112;-71
2022/08/27 04:48:24;;;;;;;4.78;2.65;;;16.90;99.90;;;;;;5048918;28;20496;-71
2022/08/27 04:50:50;;;;;;;5.75;2.05;;;15.80;99.90;;;;;;5049274;28;20031;-71
2022/08/27 04:53:16;;;;;;;4.63;2.20;;;15.70;99.90;;;;;;5049284;28;20061;-71
2022/08/27 04:55:49;;;;;;;8.20;3.15;;;15.60;99.90;;;;;;5048958;28;20059;-71
2022/08/27 04:58:15;;;;;;;5.72;2.92;;;15.60;99.90;;;;;;5048765;28;20013;-71
2022/08/27 05:00:42;;;;;;;5.18;3.08;;;15.40;99.90;;;;;;5048698;28;20041;-71
2022/08/27 05:03:08;;;;;;;5.70;2.53;;;15.30;99.90;;;;;;5049448;28;20060;-71
2022/08/27 05:05:34;;;;;;;4.50;2.78;;;16.40;99.90;;;;;;5048683;28;20537;-71
2022/08/27 05:07:59;;;;;;;4.15;2.95;;;15.30;99.90;;;;;;5035272;28;20025;-71
2022/08/27 05:10:25;;;;;;;5.05;2.88;;;15.30;99.90;;;;;;5048798;28;20025;-71
2022/08/27 05:12:50;;;;;;;7.10;2.90;;;15.30;99.90;;;;;;5047315;28;20499;-71
2022/08/27 05:15:16;;;;;;;4.05;2.60;;;15.20;99.90;;;;;;5051261;28;20496;-71
2022/08/27 05:17:42;;;;;;;4.50;2.33;;;15.20;99.90;;;;;;5052515;28;20022;-71
2022/08/27 05:20:09;;;;;;;6.32;3.10;;;15.10;99.90;;;;;;5052880;28;20363;-71
2022/08/27 05:22:35;;;;;;;4.15;2.30;;;15.10;99.90;;;;;;5052513;28;20052;-71
2022/08/27 05:25:00;;;;;;;6.22;3.13;;;15.10;99.90;;;;;;5051987;28;20139;-71
2022/08/27 05:27:26;;;;;;;8.68;2.92;;;15.20;99.90;;;;;;5052298;28;20032;-71
2022/08/27 05:29:51;;;;;;;4.05;3.13;;;15.20;99.90;;;;;;5052327;28;20091;-71
2022/08/27 05:32:17;;;;;;;7.25;3.08;;;15.10;99.90;;;;;;5052388;28;20029;-71
2022/08/27 05:34:44;;;;;;;5.50;2.97;;;15.20;99.90;;;;;;5052303;28;20061;-71
2022/08/27 05:37:10;;;;;;;4.57;3.13;;;15.20;99.90;;;;;;5051626;28;20124;-71
2022/08/27 05:39:35;;;;;;;4.57;2.78;;;15.00;99.90;;;;;;5051943;28;20060;-71
2022/08/27 05:42:01;;;;;;;5.55;3.10;;;15.20;99.90;;;;;;5052188;28;20039;-71
2022/08/27 05:44:26;;;;;;;6.95;3.40;;;15.30;99.90;;;;;;5051816;28;20037;-71
2022/08/27 05:46:52;;;;;;;6.55;2.80;;;15.20;99.90;;;;;;5052114;28;20092;-71
2022/08/27 05:49:17;;;;;;;6.22;2.70;;;15.30;99.90;;;;;;5055949;28;20089;-71
2022/08/27 05:51:43;;;;;;;7.38;3.13;;;16.50;99.90;;;;;;5069027;28;20032;-71
2022/08/27 05:54:13;;;;;;;5.93;2.97;;;15.40;99.90;;;;;;5058553;28;20377;-71
2022/08/27 05:56:40;;;;;;;6.03;2.90;;;15.50;99.90;;;;;;5051805;28;20032;-71
2022/08/27 06:01:53;;;;;;;6.35;2.55;;;15.50;99.90;;;;;;5051587;28;20556;-71
2022/08/27 06:04:21;;;;;;;7.90;2.95;;;16.80;99.90;;;;;;5051392;28;20017;-71
2022/08/27 06:06:48;;;;;;;11.27;3.42;;;15.70;99.90;;;;;;5051382;28;20111;-71
2022/08/27 06:09:20;;;;;;;4.35;3.42;;;15.70;99.90;;;;;;5050923;28;20100;-71
2022/08/27 06:11:47;;;;;;;5.47;2.80;;;15.80;99.90;;;;;;5051507;28;20032;-71
2022/08/27 06:14:13;;;;;;;3.70;2.55;;;15.90;99.90;;;;;;5051516;28;20048;-71
2022/08/27 06:16:39;;;;;;;3.97;2.65;;;16.00;99.90;;;;;;5056814;28;20094;-71
2022/08/27 06:19:06;;;;;;;4.65;2.35;;;16.00;99.90;;;;;;5051676;28;20079;-71
2022/08/27 06:21:32;;;;;;;5.57;2.88;;;16.20;99.90;;;;;;5056774;28;20013;-72
2022/08/27 06:23:57;;;;;;;6.18;2.85;;;16.60;99.90;;;;;;5050862;28;20116;-71
2022/08/27 06:26:24;;;;;;;6.47;3.15;;;16.30;99.90;;;;;;5051022;28;20120;-71
2022/08/27 06:28:50;;;;;;;6.93;2.47;;;16.20;99.90;;;;;;5050759;28;20021;-71
2022/08/27 06:31:18;;;;;;;5.63;2.42;;;16.40;99.90;;;;;;5049647;28;20090;-71
2022/08/27 06:33:45;;;;;;;4.05;2.20;;;16.40;99.90;;;;;;5050644;28;20112;-71
2022/08/27 06:36:14;;;;;;;6.93;3.00;;;16.50;99.90;;;;;;5050829;28;20029;-71
2022/08/27 06:38:42;;;;;;;7.60;2.65;;;16.50;99.90;;;;;;5050468;28;20064;-71
2022/08/27 06:41:08;;;;;;;3.28;2.20;;;16.60;99.90;;;;;;5051353;28;20025;-71
2022/08/27 06:43:35;;;;;;;3.83;1.98;;;16.70;99.90;;;;;;5050916;28;20052;-71
2022/08/27 06:46:04;;;;;;;6.68;2.50;;;16.70;99.90;;;;;;5050768;28;20041;-71
2022/08/27 06:48:29;;;;;;;5.53;2.22;;;16.70;99.90;;;;;;5050851;28;20314;-72
2022/08/27 06:50:55;;;;;;;4.88;2.00;;;16.80;99.70;;;;;;5050770;28;20021;-71
2022/08/27 06:53:21;;;;;;;4.47;2.20;;;16.80;99.60;;;;;;5050268;28;20032;-74
2022/08/27 06:55:47;;;;;;;7.80;1.90;;;16.90;99.50;;;;;;5050663;28;20055;-74
2022/08/27 06:58:15;;;;;;;4.55;2.13;;;17.00;99.40;;;;;;5050721;28;20102;-74
2022/08/27 07:00:41;;;;;;;4.05;1.65;;;17.00;99.20;;;;;;5049235;28;20402;-74
2022/08/27 07:03:07;;;;;;;6.47;2.13;;;17.10;99.00;;;;;;5051001;28;20494;-74
2022/08/27 07:05:34;;;;;;;2.03;1.40;;;18.10;99.00;;;;;;5050339;28;20100;-74
2022/08/27 07:08:01;;;;;;;4.75;1.55;;;17.20;98.90;;;;;;5050056;28;20128;-74
2022/08/27 07:10:27;;;;;;;4.15;1.35;;;17.30;98.60;;;;;;5050370;28;20044;-74
2022/08/27 07:12:52;;;;;;;3.28;1.58;;;17.30;98.30;;;;;;5050246;28;20032;-74
2022/08/27 07:15:18;;;;;;;3.30;1.48;;;17.40;98.30;;;;;;5050304;28;20033;-74
2022/08/27 07:17:44;;;;;;;4.45;1.17;;;17.40;98.20;;;;;;5050246;28;20025;-74
2022/08/27 07:20:11;;;;;;;6.03;1.33;;;17.40;98.10;;;;;;5050447;28;20033;-74
2022/08/27 07:22:41;;;;;;;5.32;1.65;;;17.60;98.20;;;;;;5049660;28;20021;-74
2022/08/27 07:25:11;;;;;;;5.20;1.27;;;17.70;98.20;;;;;;5049064;28;20120;-75
2022/08/27 07:27:37;;;;;;;4.05;1.50;;;17.70;97.70;;;;;;5049504;28;20043;-75
2022/08/27 07:30:05;;;;;;;2.15;1.85;;;17.70;97.60;;;;;;5049475;28;20029;-74
2022/08/27 07:32:30;;;;;;;3.78;1.67;;;17.90;97.50;;;;;;5049499;28;20051;-75
2022/08/27 07:34:56;;;;;;;3.90;1.27;;;17.90;97.30;;;;;;5049460;28;20061;-74
2022/08/27 07:37:21;;;;;;;4.47;1.35;;;18.00;97.40;;;;;;5048226;28;20059;-74
2022/08/27 07:39:47;;;;;;;3.45;1.00;;;18.00;97.00;;;;;;5052004;28;20033;-74
2022/08/27 07:44:57;;;;;;;3.75;1.35;;;18.30;96.30;;;;;;5049814;28;20048;-74
2022/08/27 07:47:23;;;;;;;3.75;1.35;;;18.30;96.40;;;;;;5061973;28;20021;-74
2022/08/27 07:49:49;;;;;;;1.65;0.77;;;18.40;96.20;;;;;;5049629;28;20031;-74
2022/08/27 07:52:15;;;;;;;3.08;1.50;;;18.50;96.00;;;;;;5049043;28;20074;-75
2022/08/27 07:54:41;;;;;;;6.07;1.45;;;18.60;95.80;;;;;;5050124;28;20013;-74
2022/08/27 07:57:07;;;;;;;4.30;1.15;;;18.70;95.70;;;;;;5049663;28;20031;-73
2022/08/27 07:59:33;;;;;;;2.50;1.20;;;18.70;95.60;;;;;;5049592;28;20013;-74
2022/08/27 08:01:58;;;;;;;7.82;1.17;;;18.80;95.20;;;;;;5049469;28;20509;-75
2022/08/27 08:04:25;;;;;;;4.65;1.20;;;18.80;95.10;;;;;;5047921;28;20056;-76
2022/08/27 08:06:51;;;;;;;4.57;1.17;;;19.00;94.90;;;;;;5048714;28;20041;-74
2022/08/27 08:09:17;;;;;;;3.58;1.10;;;19.20;94.80;;;;;;5050525;28;20025;-76
2022/08/27 08:11:42;;;;;;;6.82;1.15;;;19.30;94.40;;;;;;5049499;28;20103;-75
2022/08/27 08:14:08;;;;;;;6.03;1.02;;;19.50;94.20;;;;;;5049593;28;20067;-74
2022/08/27 08:16:33;;;;;;;2.58;0.80;;;19.80;93.90;;;;;;5049330;28;20108;-74
2022/08/27 08:19:01;;;;;;;3.95;0.90;;;19.60;93.50;;;;;;5049112;28;20127;-77
2022/08/27 08:21:27;;;;;;;1.80;0.75;;;19.90;92.60;;;;;;5049145;28;20047;-74
2022/08/27 08:23:53;;;;;;;1.83;0.85;;;19.90;92.70;;;;;;5064729;28;20374;-75
2022/08/27 08:26:18;;;;;;;3.08;0.93;;;20.30;92.80;;;;;;5046078;28;20525;-75
2022/08/27 08:28:44;;;;;;;5.03;1.23;;;20.60;92.80;;;;;;5048193;28;20025;-75
2022/08/27 08:31:11;;;;;;;3.28;0.90;;;20.00;92.80;;;;;;5049493;28;20037;-75
2022/08/27 08:33:36;;;;;;;4.97;1.50;;;20.10;92.60;;;;;;5049891;28;20043;-75
2022/08/27 08:36:08;;;;;;;4.22;1.02;;;20.00;92.50;;;;;;5049775;28;20476;-74
2022/08/27 08:38:36;;;;;;;6.07;1.58;;;20.00;92.80;;;;;;5044145;28;20061;-74
2022/08/27 08:41:02;;;;;;;3.42;0.90;;;20.00;92.40;;;;;;5050751;28;20028;-74
2022/08/27 08:43:50;;;;;;;7.32;1.00;;;20.10;92.20;;;;;;5048947;28;20025;-74
2022/08/27 08:46:36;;;;;;;2.80;0.90;;;20.20;92.40;;;;;;5049611;28;20446;-74
2022/08/27 08:49:21;;;;;;;4.55;1.13;;;20.30;91.90;;;;;;5059470;28;20358;-74
2022/08/27 08:51:47;;;;;;;5.15;0.95;;;20.50;91.40;;;;;;5071960;28;20048;-74
2022/08/27 08:54:17;;;;;;;2.05;0.65;;;20.50;91.40;;;;;;5066727;28;20031;-75
2022/08/27 08:56:48;;;;;;;2.60;0.98;;;20.60;91.30;;;;;;5051494;28;20482;-76
2022/08/27 08:59:33;;;;;;;4.38;0.80;;;20.50;90.90;;;;;;5052727;28;20466;-75
2022/08/27 09:01:59;;;;;;;3.30;0.82;;;20.50;90.30;;;;;;5052283;28;20033;-74
2022/08/27 09:04:27;;;;;;;2.08;0.90;;;20.40;90.90;;;;;;5051829;28;20024;-75
2022/08/27 09:07:01;;;;;;;2.55;0.90;;;20.30;91.20;;;;;;5052583;28;20467;-74
2022/08/27 09:09:41;;;;;;;3.42;0.82;;;20.30;91.40;;;;;;5052687;28;20067;-74
2022/08/27 09:12:23;;;;;;;2.58;1.15;;;20.50;90.70;;;;;;5062997;28;20062;-75
2022/08/27 09:15:02;;;;;;;5.05;1.27;;;20.50;89.70;;;;;;5070603;28;20099;-74
2022/08/27 09:17:28;;;;;;;3.60;1.15;;;20.70;90.90;;;;;;5038048;28;20486;-74
2022/08/27 09:19:54;;;;;;;2.45;1.23;;;20.80;90.30;;;;;;5060938;28;20074;-75
2022/08/27 09:22:27;;;;;;;3.15;0.65;;;20.90;89.90;;;;;;5060445;28;20505;-76
2022/08/27 09:25:25;;;;;;;2.35;0.77;;;21.00;89.10;;;;;;5052483;28;20438;-75
2022/08/27 09:27:57;;;;;;;4.30;1.05;;;21.00;88.90;;;;;;5052452;28;20043;-75
2022/08/27 09:30:29;;;;;;;3.55;1.00;;;21.10;88.50;;;;;;5052462;28;20028;-75
2022/08/27 09:33:04;;;;;;;2.10;0.57;;;20.90;89.70;;;;;;5052094;28;20074;-75
2022/08/27 09:35:59;;;;;;;3.05;1.10;;;20.90;90.00;;;;;;5052175;28;20454;-76
2022/08/27 09:38:33;;;;;;;2.20;0.73;;;21.00;90.10;;;;;;5051631;28;20075;-74
2022/08/27 09:41:01;;;;;;;3.88;0.70;;;21.20;89.60;;;;;;5052191;28;20056;-75
2022/08/27 09:43:30;;;;;;;5.03;0.90;;;21.30;88.60;;;;;;5052390;28;20065;-78
2022/08/27 09:46:18;;;;;;;3.58;1.42;;;21.70;88.10;;;;;;5054358;28;20033;-76
2022/08/27 09:48:44;;;;;;;4.50;0.95;;;21.80;88.20;;;;;;5062702;28;20029;-76
2022/08/27 09:51:18;;;;;;;2.40;0.93;;;22.10;86.40;;;;;;5051781;28;20362;-77
2022/08/27 09:53:50;;;;;;;5.70;0.88;;;22.20;86.50;;;;;;5051929;28;20032;-76
2022/08/27 09:56:30;;;;;;;3.00;0.98;;;22.40;85.70;;;;;;5051759;28;20025;-76
2022/08/27 09:59:11;;;;;;;3.03;0.52;;;23.40;85.80;;;;;;5062784;28;20103;-75
2022/08/27 10:02:01;;;;;;;4.32;0.95;;;24.00;84.00;;;;;;5044349;28;20131;-76
2022/08/27 10:04:39;;;;;;;3.05;0.90;;;22.40;84.00;;;;;;5042963;28;20032;-76
2022/08/27 10:07:30;;;;;;;2.80;1.20;;;22.20;83.40;;;;;;5051569;28;20025;-76
2022/08/27 10:09:59;;;;;;;2.88;0.75;;;22.10;83.10;;;;;;5054683;28;20021;-76
2022/08/27 10:13:03;;;;;;;5.18;1.65;;;22.00;84.50;;;;;;5056890;28;20458;-76
2022/08/27 10:15:35;;;;;;;3.40;1.27;;;22.20;83.40;;;;;;5020453;28;20064;-76
2022/08/27 10:18:47;;;;;;;1.30;0.70;;;23.00;84.80;;;;;;5029117;28;20088;-77
2022/08/27 10:21:28;;;;;;;3.65;1.10;;;22.20;84.20;;;;;;5025575;28;20041;-74
2022/08/27 10:24:13;;;;;;;2.47;1.02;;;22.40;84.20;;;;;;5026846;28;20026;-74
2022/08/27 10:26:49;;;;;;;4.13;0.95;;;22.30;83.80;;;;;;5015119;28;20041;-75
2022/08/27 10:29:51;;;;;;;1.52;0.68;;;22.40;83.60;;;;;;5029149;28;20280;-74
2022/08/27 10:32:47;;;;;;;3.05;1.20;;;22.50;82.30;;;;;;5028934;28;20438;-74
2022/08/27 10:35:19;;;;;;;2.50;0.98;;;22.40;83.80;;;;;;5028621;28;20083;-74
2022/08/27 10:37:56;;;;;;;4.40;1.20;;;22.50;81.90;;;;;;5032063;28;20029;-75
2022/08/27 10:40:37;;;;;;;4.72;0.70;;;22.50;81.10;;;;;;5027660;28;20053;-76
2022/08/27 10:43:33;;;;;;;1.90;0.65;;;22.40;81.70;;;;;;5028575;28;20033;-75
2022/08/27 10:46:17;;;;;;;3.45;0.98;;;22.40;82.10;;;;;;5028270;28;20049;-75
2022/08/27 10:48:55;;;;;;;3.55;0.70;;;22.40;83.70;;;;;;5025147;28;20029;-75
2022/08/27 10:51:31;;;;;;;2.53;1.00;;;22.40;82.00;;;;;;5030165;28;20022;-72
2022/08/27 10:54:04;;;;;;;3.53;0.90;;;22.50;83.70;;;;;;5050927;28;20108;-74
2022/08/27 10:56:37;;;;;;;5.20;1.05;;;22.60;83.70;;;;;;5050703;28;20036;-74
2022/08/27 10:59:05;;;;;;;2.60;1.00;;;22.70;83.80;;;;;;5050948;28;20098;-74
2022/08/27 11:01:56;;;;;;;6.50;0.80;;;22.70;83.40;;;;;;5053738;28;20317;-76
2022/08/27 11:04:34;;;;;;;3.10;0.95;;;22.80;83.00;;;;;;5050597;28;20029;-74
2022/08/27 11:07:07;;;;;;;2.33;0.75;;;22.80;81.30;;;;;;5043598;28;20459;-74
2022/08/27 11:09:49;;;;;;;3.65;0.73;;;23.00;82.40;;;;;;5044311;28;20063;-74
2022/08/27 11:12:21;;;;;;;3.60;0.95;;;22.80;80.90;;;;;;5044757;28;20029;-75
2022/08/27 11:15:20;;;;;;;5.28;1.00;;;22.70;82.30;;;;;;5057700;28;20128;-74
2022/08/27 11:18:07;;;;;;;2.00;0.93;;;22.80;80.90;;;;;;5048334;28;20040;-74
2022/08/27 11:20:52;;;;;;;3.33;0.85;;;22.90;80.00;;;;;;5042924;28;20444;-74
2022/08/27 11:23:24;;;;;;;4.40;0.98;;;22.70;79.10;;;;;;5054448;28;20111;-74
2022/08/27 11:25:55;;;;;;;2.33;0.77;;;22.70;82.20;;;;;;5058626;28;20040;-74
2022/08/27 11:28:44;;;;;;;3.60;0.93;;;23.80;82.20;;;;;;5046055;28;20424;-74
2022/08/27 11:31:36;;;;;;;3.30;1.15;;;23.00;81.70;;;;;;5028612;28;20029;-74
2022/08/27 11:34:19;;;;;;;2.20;0.80;;;23.00;81.30;;;;;;5065532;28;20144;-74
2022/08/27 11:37:13;;;;;;;2.07;0.80;;;23.10;81.00;;;;;;5050427;28;20060;-75
2022/08/27 11:39:54;;;;;;;5.75;0.70;;;23.30;78.90;;;;;;5041522;28;20029;-75
2022/08/27 11:42:38;;;;;;;2.45;1.05;;;23.20;91.70;;;;;;5049502;28;20104;-75
2022/08/27 11:45:14;;;;;;;2.70;0.57;;;23.30;79.60;;;;;;5047941;28;20021;-74
2022/08/27 11:47:54;;;;;;;4.43;0.63;;;23.30;78.90;;;;;;5043938;28;20112;-74
2022/08/27 11:50:22;;;;;;;6.05;0.80;;;23.40;79.20;;;;;;5049926;28;20096;-75
2022/08/27 11:52:58;;;;;;;3.78;1.23;;;23.50;78.40;;;;;;5049921;28;20480;-74
2022/08/27 11:55:27;;;;;;;5.05;0.90;;;23.60;78.60;;;;;;5049620;28;20485;-75
2022/08/27 11:58:17;;;;;;;3.65;0.80;;;23.50;78.00;;;;;;5057285;28;20021;-74
2022/08/27 12:00:44;;;;;;;4.85;1.27;;;23.40;77.90;;;;;;5038723;28;20478;-74
2022/08/27 12:03:23;;;;;;;5.30;1.10;;;24.50;79.50;;;;;;5053099;28;20040;-74
2022/08/27 12:06:09;;;;;;;3.53;0.93;;;23.20;78.70;;;;;;5049444;28;20059;-73
2022/08/27 12:08:35;;;;;;;3.88;0.85;;;23.20;78.30;;;;;;5047569;28;20056;-73
2022/08/27 12:11:36;;;;;;;5.63;1.00;;;23.90;79.80;;;;;;5048598;28;20669;-73
2022/08/27 12:14:31;;;;;;;2.92;0.80;;;23.00;78.80;;;;;;5042495;28;20036;-73
2022/08/27 12:17:10;;;;;;;4.47;0.82;;;23.00;79.20;;;;;;5057345;28;20163;-73
2022/08/27 12:20:13;;;;;;;3.78;0.70;;;22.80;79.20;;;;;;5063610;28;20032;-73
2022/08/27 12:25:26;;;;;;;3.00;0.88;;;23.00;79.40;;;;;;5010224;28;20040;-73
2022/08/27 12:28:06;;;;;;;5.10;0.93;;;23.10;80.50;;;;;;5008112;28;20070;-73
2022/08/27 12:30:38;;;;;;;2.75;1.00;;;23.10;80.80;;;;;;5003012;28;20117;-73
2022/08/27 12:33:12;;;;;;;3.33;1.25;;;23.20;79.70;;;;;;4991288;28;20038;-73
2022/08/27 12:35:43;;;;;;;3.88;1.10;;;23.20;80.00;;;;;;4991691;28;20836;-73
2022/08/27 12:38:31;;;;;;;2.67;0.90;;;23.30;77.10;;;;;;4992081;28;20031;-73
2022/08/27 12:41:02;;;;;;;8.48;1.73;;;23.40;79.80;;;;;;4991458;28;20504;-73
2022/08/27 12:43:32;;;;;;;4.88;0.82;;;23.30;78.70;;;;;;4991530;28;20038;-73
2022/08/27 12:46:01;;;;;;;2.80;0.93;;;23.30;79.00;;;;;;4991685;28;20101;-73
2022/08/27 12:48:31;;;;;;;2.60;0.90;;;23.40;78.80;;;;;;4987889;28;20122;-73
2022/08/27 12:51:02;;;;;;;5.88;1.23;;;23.40;78.80;;;;;;4975167;28;20023;-73
2022/08/27 12:53:49;;;;;;;5.97;1.45;;;23.40;78.90;;;;;;4984385;28;20070;-73
2022/08/27 12:56:26;;;;;;;1.35;0.70;;;23.40;79.30;;;;;;4979356;28;20495;-73
2022/08/27 12:59:24;;;;;;;2.47;0.77;;;23.40;76.60;;;;;;5018595;28;20466;-74
2022/08/27 13:02:05;;;;;;;3.20;0.90;;;23.50;77.70;;;;;;5044149;28;20080;-75
2022/08/27 13:04:32;;;;;;;4.68;1.65;;;23.60;79.10;;;;;;5062413;28;20025;-74
2022/08/27 13:06:58;;;;;;;2.47;1.02;;;23.70;78.50;;;;;;5059670;28;20035;-74
2022/08/27 13:09:30;;;;;;;4.63;1.30;;;23.60;77.80;;;;;;5051490;28;20096;-74
2022/08/27 13:11:58;;;;;;;3.08;1.05;;;23.60;78.10;;;;;;5064286;28;20028;-74
2022/08/27 13:14:26;;;;;;;4.68;1.10;;;23.60;77.50;;;;;;5068754;28;20031;-75
2022/08/27 13:17:16;;;;;;;4.78;1.10;;;23.60;78.30;;;;;;5069623;28;20070;-74
2022/08/27 13:19:53;;;;;;;4.15;0.80;;;23.60;76.80;;;;;;5061172;28;20068;-74